Terminal Aerodrome Forecast
Issued by NWS

Home | Current Version | Previous Version | Text Only | Print | Product List | Glossary On
Versions: 1 2 3 4 5 6 7 8 9 10 11 12 13 14 15
000
FTUS45 KRIW 011700
TAFCPR
TAF
KCPR 011723Z 0118/0218 VRB05KT 6SM -SN OVC015
      TEMPO 0118/0119 3SM -SN
     FM012000 25008KT P6SM FEW025 SCT250
     FM012200 22012G18KT P6SM SCT250
     FM020600 22017G27KT P6SM BKN090=

USA.gov is the U.S. government's official web portal to all federal, state and local government web resources and services.